createdAt,value
2018-04-25T00:00:00.259Z,100087.39
2018-04-25T00:01:02.764Z,100083.66
2018-04-25T00:02:05.290Z,100083.25
2018-04-25T00:03:07.779Z,100077.73
2018-04-25T00:04:10.255Z,100072.22
2018-04-25T00:05:12.723Z,100065.91
2018-04-25T00:06:15.209Z,100060.78
2018-04-25T00:07:17.789Z,100065.91
2018-04-25T00:08:20.273Z,100065.91
2018-04-25T00:09:22.747Z,100071.02
2018-04-25T00:10:25.234Z,100075.56
2018-04-25T00:11:27.740Z,100064.52
2018-04-25T00:12:30.265Z,100065.10
2018-04-25T00:13:32.816Z,100066.88
2018-04-25T00:14:35.325Z,100061.36
2018-04-25T00:15:37.813Z,100063.55
2018-04-25T00:16:40.295Z,100064.92
2018-04-25T00:17:42.793Z,100060.78
2018-04-25T00:18:45.299Z,100060.21
2018-04-25T00:19:47.815Z,100061.99
2018-04-25T00:20:50.558Z,100056.47
2018-04-25T00:21:53.030Z,100059.23
2018-04-25T00:22:55.515Z,100055.50
2018-04-25T00:23:58.000Z,100056.47
2018-04-25T00:25:00.496Z,100054.11
2018-04-25T00:26:02.984Z,100049.00
2018-04-25T00:27:05.484Z,100046.24
2018-04-25T00:28:08.001Z,100051.18
2018-04-25T00:29:10.515Z,100043.71
2018-04-25T00:30:12.990Z,100041.35
2018-04-25T00:31:15.481Z,100041.92
2018-04-25T00:32:17.964Z,100039.39
2018-04-25T00:33:20.455Z,100038.41
2018-04-25T00:34:22.996Z,100034.45
2018-04-25T00:35:25.469Z,100032.50
2018-04-25T00:36:27.960Z,100030.55
2018-04-25T00:37:30.454Z,100028.36
2018-04-25T00:38:33.032Z,100032.72
2018-04-25T00:39:35.536Z,100029.56
2018-04-25T00:40:38.010Z,100030.94
2018-04-25T00:41:40.488Z,100024.45
2018-04-25T00:42:42.976Z,100020.31
2018-04-25T00:43:45.481Z,100025.83
2018-04-25T00:44:47.955Z,100026.23
2018-04-25T00:45:50.441Z,100018.93
2018-04-25T00:46:52.923Z,100016.97
2018-04-25T00:47:55.412Z,100025.25
2018-04-25T00:48:57.896Z,100019.33
2018-04-25T00:50:00.403Z,100020.71
2018-04-25T00:51:02.981Z,100013.41
2018-04-25T00:52:05.465Z,100017.55
2018-04-25T00:53:07.961Z,100012.44
2018-04-25T00:54:10.469Z,100008.47
2018-04-25T00:55:12.965Z,100009.28
2018-04-25T00:56:15.476Z,100010.83
2018-04-25T00:57:17.989Z,100011.23
2018-04-25T00:58:20.491Z,100008.65
2018-04-25T00:59:22.982Z,100019.51
2018-04-25T01:00:25.483Z,100012.21
2018-04-25T01:01:27.986Z,100016.34
2018-04-25T01:02:30.484Z,100014.39
2018-04-25T01:03:32.972Z,100017.73
2018-04-25T01:04:35.477Z,100009.85
2018-04-25T01:05:37.947Z,100010.43
2018-04-25T01:06:40.451Z,100012.38
2018-04-25T01:07:42.955Z,100006.87
2018-04-25T01:08:45.444Z,100003.53
2018-04-25T01:09:47.940Z,100001.75
2018-04-25T01:10:50.435Z,99991.88
2018-04-25T01:11:53.017Z,100002.73
2018-04-25T01:12:55.432Z,99996.41
2018-04-25T01:13:57.917Z,99999.17
2018-04-25T01:15:00.443Z,99994.23
2018-04-25T01:16:02.955Z,99992.85
2018-04-25T01:17:05.436Z,99993.25
2018-04-25T01:18:07.921Z,99986.36
2018-04-25T01:19:10.401Z,99998.19
2018-04-25T01:20:12.935Z,99995.84
2018-04-25T01:21:16.228Z,99993.48
2018-04-25T01:22:18.740Z,99999.22
2018-04-25T01:23:25.985Z,99996.86
2018-04-25T01:24:28.476Z,99987.78
2018-04-25T01:25:32.661Z,99992.72
2018-04-25T01:26:35.168Z,99993.13
2018-04-25T01:27:38.264Z,99986.80
2018-04-25T01:28:40.889Z,99990.36
2018-04-25T01:29:43.453Z,99989.56
2018-04-25T01:31:04.617Z,99980.31
2018-04-25T01:32:07.926Z,99984.63
2018-04-25T01:33:10.427Z,99985.20
2018-04-25T01:35:43.042Z,99985.20
2018-04-25T01:38:51.070Z,99981.64
2018-04-25T01:39:54.414Z,99985.37
2018-04-25T01:40:56.966Z,99977.68
2018-04-25T01:41:59.451Z,99982.80
2018-04-25T01:43:16.421Z,99980.04
2018-04-25T01:44:24.860Z,99987.91
2018-04-25T01:47:07.764Z,99987.52
2018-04-25T01:48:11.127Z,99989.87
2018-04-25T01:50:58.184Z,99992.23
2018-04-25T01:52:12.693Z,99985.91
2018-04-25T01:53:26.927Z,99984.53
2018-04-25T01:54:41.349Z,99986.88
2018-04-25T01:55:55.658Z,99985.11
2018-04-25T01:57:10.199Z,99984.70
2018-04-25T01:58:24.588Z,99994.36
2018-04-25T01:59:39.009Z,99996.72
2018-04-25T02:00:53.400Z,99994.53
2018-04-25T02:01:55.406Z,99992.18
2018-04-25T02:02:57.373Z,99992.18
2018-04-25T02:03:59.904Z,99990.58
2018-04-25T02:05:02.389Z,99990.80
2018-04-25T02:06:06.755Z,99990.00
2018-04-25T02:07:09.267Z,99987.23
2018-04-25T02:08:11.789Z,99980.75
2018-04-25T02:09:14.260Z,99984.08
2018-04-25T02:10:16.745Z,99986.44
2018-04-25T02:11:19.263Z,99992.36
2018-04-25T02:12:21.752Z,99988.80
2018-04-25T02:13:24.256Z,99989.59
2018-04-25T02:14:26.726Z,99985.86
2018-04-25T02:15:29.209Z,99986.84
2018-04-25T02:16:31.712Z,99987.81
2018-04-25T02:17:34.201Z,99990.40
2018-04-25T02:18:36.701Z,99985.45
2018-04-25T02:19:39.191Z,99989.42
2018-04-25T02:20:41.674Z,99982.70
2018-04-25T02:21:44.159Z,99978.96
2018-04-25T02:22:46.645Z,99976.38
2018-04-25T02:23:49.167Z,99976.95
2018-04-25T02:24:51.672Z,99975.58
2018-04-25T02:25:54.161Z,99977.36
2018-04-25T02:26:56.630Z,99981.50
2018-04-25T02:27:59.114Z,99971.02
2018-04-25T02:29:01.631Z,99972.57
2018-04-25T02:30:04.127Z,99967.62
2018-04-25T02:31:06.625Z,99968.03
2018-04-25T02:32:09.109Z,99973.72
2018-04-25T02:33:11.615Z,99972.34
2018-04-25T02:34:14.139Z,99976.08
2018-04-25T02:35:16.620Z,99972.92
2018-04-25T02:36:19.119Z,99970.97
2018-04-25T02:37:21.601Z,99973.06
2018-04-25T02:38:24.117Z,99978.03
2018-04-25T02:39:26.676Z,99979.02
2018-04-25T02:40:29.236Z,99978.44
2018-04-25T02:41:31.754Z,99972.92
2018-04-25T02:42:34.241Z,99978.84
2018-04-25T02:43:36.812Z,99982.00
2018-04-25T02:44:39.320Z,99981.42
2018-04-25T02:45:44.518Z,99982.97
2018-04-25T02:46:46.990Z,99980.62
2018-04-25T02:47:49.485Z,99975.68
2018-04-25T02:48:51.969Z,99966.83
2018-04-25T02:49:54.476Z,99968.78
2018-04-25T02:50:56.991Z,99970.73
2018-04-25T02:51:59.473Z,99971.14
2018-04-25T02:53:01.950Z,99967.98
2018-04-25T02:54:04.447Z,99964.25
2018-04-25T02:55:06.955Z,99964.39
2018-04-25T02:56:09.451Z,99964.39
2018-04-25T02:57:11.952Z,99964.97
2018-04-25T02:58:14.441Z,99963.59
2018-04-25T02:59:16.953Z,99960.83
2018-04-25T03:00:19.475Z,99962.21
2018-04-25T03:01:21.970Z,99962.79
2018-04-25T03:02:24.453Z,99962.39
2018-04-25T03:03:26.953Z,99965.95
2018-04-25T03:04:29.439Z,99969.11
2018-04-25T03:05:31.948Z,99960.61
2018-04-25T03:06:34.475Z,99964.34
2018-04-25T03:07:36.969Z,99960.61
2018-04-25T03:08:39.449Z,99958.03
2018-04-25T03:09:41.927Z,99956.07
2018-04-25T03:10:44.429Z,99960.78
2018-04-25T03:11:46.911Z,99952.52
2018-04-25T03:12:49.453Z,99950.33
2018-04-25T03:13:51.937Z,99953.09
2018-04-25T03:14:54.406Z,99953.09
2018-04-25T03:15:56.955Z,99952.52
2018-04-25T03:16:59.429Z,99957.63
2018-04-25T03:18:01.943Z,99952.69
2018-04-25T03:19:04.415Z,99951.30
2018-04-25T03:20:06.928Z,99948.15
2018-04-25T03:21:09.426Z,99949.13
2018-04-25T03:22:11.989Z,99952.28
2018-04-25T03:23:14.484Z,99954.64
2018-04-25T03:24:17.026Z,99955.22
2018-04-25T03:25:19.515Z,99953.44
2018-04-25T03:26:22.013Z,99955.22
2018-04-25T03:27:24.509Z,99958.95
2018-04-25T03:28:26.989Z,99954.82
2018-04-25T03:29:29.459Z,99950.28
2018-04-25T03:30:31.941Z,99950.11
2018-04-25T03:31:34.456Z,99949.30
2018-04-25T03:32:36.922Z,99952.06
2018-04-25T03:33:39.405Z,99952.64
2018-04-25T03:34:41.915Z,99958.55
2018-04-25T03:35:44.425Z,99953.04
2018-04-25T03:36:46.986Z,99950.68
2018-04-25T03:37:49.679Z,99951.27
2018-04-25T03:38:52.163Z,99951.27
2018-04-25T03:39:54.645Z,99947.70
2018-04-25T03:40:57.157Z,99950.05
2018-04-25T03:41:59.636Z,99949.66
2018-04-25T03:43:02.125Z,99952.64
2018-04-25T03:44:04.609Z,99948.10
2018-04-25T03:45:07.101Z,99941.61
2018-04-25T03:46:09.609Z,99945.57
2018-04-25T03:47:12.103Z,99944.59
2018-04-25T03:48:14.605Z,99943.21
2018-04-25T03:49:17.085Z,99946.77
2018-04-25T03:50:19.559Z,99945.39
2018-04-25T03:51:22.103Z,99943.61
2018-04-25T03:52:24.621Z,99949.53
2018-04-25T03:53:27.128Z,99939.87
2018-04-25T03:54:29.689Z,99940.67
2018-04-25T03:55:32.182Z,99941.43
2018-04-25T03:56:34.705Z,99944.19
2018-04-25T03:57:37.267Z,99952.06
2018-04-25T03:58:39.827Z,99950.86
2018-04-25T03:59:42.387Z,99954.20
2018-04-25T04:00:44.858Z,99958.91
2018-04-25T04:01:47.350Z,99953.97
2018-04-25T04:02:49.837Z,99948.63
2018-04-25T04:03:52.325Z,99951.39
2018-04-25T04:04:54.808Z,99953.34
2018-04-25T04:05:57.301Z,99952.72
2018-04-25T04:06:59.797Z,99950.54
2018-04-25T04:08:02.315Z,99957.61
2018-04-25T04:09:04.801Z,99957.61
2018-04-25T04:10:07.285Z,99958.19
2018-04-25T04:11:09.785Z,99947.48
2018-04-25T04:12:12.287Z,99954.38
2018-04-25T04:13:14.778Z,99957.94
2018-04-25T04:14:17.264Z,99954.77
2018-04-25T04:15:19.767Z,99950.06
2018-04-25T04:16:22.253Z,99950.06
2018-04-25T04:17:24.732Z,99956.55
2018-04-25T04:18:27.255Z,99958.91
2018-04-25T04:19:29.737Z,99956.16
2018-04-25T04:20:32.224Z,99950.64
2018-04-25T04:21:34.705Z,99953.57
2018-04-25T04:22:37.193Z,99953.00
2018-04-25T04:23:39.693Z,99965.00
2018-04-25T04:24:42.185Z,99956.33
2018-04-25T04:25:44.711Z,99953.75
2018-04-25T04:26:47.179Z,99952.38
2018-04-25T04:27:49.666Z,99956.11
2018-04-25T04:28:52.190Z,99954.15
2018-04-25T04:29:54.663Z,99956.91
2018-04-25T04:30:57.148Z,99964.38
2018-04-25T04:31:59.637Z,99969.49
2018-04-25T04:33:02.136Z,99971.27
2018-04-25T04:34:04.643Z,99968.11
2018-04-25T04:35:07.138Z,99967.31
2018-04-25T04:36:09.657Z,99970.87
2018-04-25T04:37:12.163Z,99973.41
2018-04-25T04:38:14.672Z,99975.01
2018-04-25T04:39:17.234Z,99971.05
2018-04-25T04:40:19.792Z,99974.20
2018-04-25T04:41:22.355Z,99972.83
2018-04-25T04:42:24.837Z,99973.80
2018-04-25T04:43:27.367Z,99967.71
2018-04-25T04:44:29.890Z,99967.89
2018-04-25T04:45:32.381Z,99977.36
2018-04-25T04:46:34.879Z,99973.00
2018-04-25T04:47:37.388Z,99974.95
2018-04-25T04:48:39.963Z,99973.00
2018-04-25T04:49:42.461Z,99973.58
2018-04-25T04:50:44.967Z,99971.22
2018-04-25T04:51:47.446Z,99969.04
2018-04-25T04:52:49.940Z,99966.51
2018-04-25T04:53:52.408Z,99965.13
2018-04-25T04:54:54.898Z,99971.22
2018-04-25T04:55:57.445Z,99968.47
2018-04-25T04:56:59.915Z,99968.47
2018-04-25T04:58:02.454Z,99968.06
2018-04-25T04:59:04.992Z,99967.48
2018-04-25T05:00:07.502Z,99972.20
2018-04-25T05:01:09.995Z,99967.66
2018-04-25T05:02:12.493Z,99966.69
2018-04-25T05:03:14.969Z,99977.31
2018-04-25T05:04:17.445Z,99968.23
2018-04-25T05:05:19.953Z,99972.38
2018-04-25T05:06:22.451Z,99973.75
2018-04-25T05:07:24.980Z,99971.75
2018-04-25T05:08:27.618Z,99965.44
2018-04-25T05:09:30.100Z,99972.15
2018-04-25T05:10:32.609Z,99966.64
2018-04-25T05:11:35.116Z,99973.70
2018-04-25T05:12:37.663Z,99975.89
2018-04-25T05:13:40.240Z,99977.27
2018-04-25T05:14:42.739Z,99978.42
2018-04-25T05:15:45.261Z,99972.10
2018-04-25T05:16:47.769Z,99973.88
2018-04-25T05:17:50.276Z,99977.62
2018-04-25T05:18:52.743Z,99977.62
2018-04-25T05:19:55.292Z,99983.13
2018-04-25T05:20:57.815Z,99978.19
2018-04-25T05:22:00.415Z,99974.05
2018-04-25T05:23:02.936Z,99979.57
2018-04-25T05:24:05.428Z,99981.13
2018-04-25T05:25:07.919Z,99990.20
2018-04-25T05:26:10.407Z,99984.86
2018-04-25T05:27:12.893Z,99982.91
2018-04-25T05:28:15.406Z,99979.34
2018-04-25T05:29:17.890Z,99981.70
2018-04-25T05:30:20.377Z,99983.08
2018-04-25T05:31:22.941Z,99988.59
2018-04-25T05:32:25.421Z,99983.08
2018-04-25T05:33:27.891Z,99985.03
2018-04-25T05:34:30.380Z,99989.17
2018-04-25T05:35:32.902Z,99983.66
2018-04-25T05:36:35.409Z,99984.64
2018-04-25T05:37:37.889Z,99982.28
2018-04-25T05:38:40.430Z,99983.66
2018-04-25T05:39:42.937Z,99988.38
2018-04-25T05:40:45.411Z,99984.64
2018-04-25T05:41:47.909Z,99985.61
2018-04-25T05:42:50.382Z,99991.93
2018-04-25T05:43:52.942Z,99981.88
2018-04-25T05:44:55.431Z,99987.39
2018-04-25T05:45:57.922Z,99991.13
2018-04-25T05:47:00.426Z,99985.21
2018-04-25T05:48:02.891Z,99992.11
2018-04-25T05:49:05.369Z,99994.06
2018-04-25T05:50:07.872Z,99995.44
2018-04-25T05:51:10.365Z,99996.59
2018-04-25T05:52:12.881Z,99996.99
2018-04-25T05:53:15.396Z,100003.48
2018-04-25T05:54:17.892Z,100000.33
2018-04-25T05:55:20.418Z,99999.92
2018-04-25T05:56:22.903Z,100002.28
2018-04-25T05:57:25.397Z,100005.04
2018-04-25T05:58:27.899Z,99995.79
2018-04-25T05:59:30.367Z,100004.64
2018-04-25T06:00:32.873Z,100000.50
2018-04-25T06:01:35.383Z,100001.30
2018-04-25T06:02:37.881Z,100001.93
2018-04-25T06:03:40.390Z,100005.31
2018-04-25T06:04:42.913Z,100002.03
2018-04-25T06:05:45.491Z,100003.41
2018-04-25T06:06:48.075Z,100004.03
2018-04-25T06:07:50.624Z,100006.05
2018-04-25T06:08:53.098Z,100006.44
2018-04-25T06:09:55.584Z,100010.23
2018-04-25T06:10:58.087Z,100015.74
2018-04-25T06:12:00.567Z,100014.36
2018-04-25T06:13:03.069Z,100011.61
2018-04-25T06:14:05.542Z,100016.14
2018-04-25T06:15:08.033Z,100022.23
2018-04-25T06:16:10.526Z,100018.50
2018-04-25T06:17:13.026Z,100022.64
2018-04-25T06:18:15.530Z,100031.76
2018-04-25T06:19:18.013Z,100017.48
2018-04-25T06:20:20.544Z,100040.34
2018-04-25T06:21:23.009Z,100034.83
2018-04-25T06:22:25.523Z,100039.14
2018-04-25T06:23:28.104Z,100038.30
2018-04-25T06:24:30.607Z,100032.39
2018-04-25T06:25:33.141Z,100043.42
2018-04-25T06:26:35.676Z,100040.26
2018-04-25T06:27:38.148Z,100040.03
2018-04-25T06:28:40.671Z,100048.48
2018-04-25T06:29:43.161Z,100045.90
2018-04-25T06:30:45.659Z,100044.30
2018-04-25T06:31:48.131Z,100049.23
2018-04-25T06:32:50.621Z,100050.61
2018-04-25T06:33:53.120Z,100052.56
2018-04-25T06:34:55.605Z,100060.44
2018-04-25T06:35:58.111Z,100056.08
2018-04-25T06:37:00.592Z,100064.70
2018-04-25T06:38:03.081Z,100060.91
2018-04-25T06:39:05.593Z,100057.93
2018-04-25T06:40:08.067Z,100061.84
2018-04-25T06:41:10.546Z,100057.30
2018-04-25T06:42:13.052Z,100062.59
2018-04-25T06:43:15.536Z,100059.20
2018-04-25T06:44:18.059Z,100056.62
2018-04-25T06:45:20.543Z,100064.09
2018-04-25T06:46:23.029Z,100065.61
2018-04-25T06:47:25.555Z,100069.92
2018-04-25T06:48:28.115Z,100077.39
2018-04-25T06:49:30.624Z,100069.30
2018-04-25T06:50:33.138Z,100065.33
2018-04-25T06:51:35.647Z,100068.66
2018-04-25T06:52:38.154Z,100076.13
2018-04-25T06:53:40.653Z,100078.89
2018-04-25T06:54:43.168Z,100077.28
2018-04-25T06:55:45.679Z,100078.44
2018-04-25T06:56:48.196Z,100087.51
2018-04-25T06:57:50.688Z,100086.30
2018-04-25T06:58:53.492Z,100083.38
2018-04-25T06:59:55.994Z,100085.90
2018-04-25T07:00:58.481Z,100084.13
2018-04-25T07:02:00.969Z,100085.09
2018-04-25T07:03:03.463Z,100085.67
2018-04-25T07:04:05.968Z,100086.65
2018-04-25T07:05:08.491Z,100077.17
2018-04-25T07:06:10.982Z,100074.99
2018-04-25T07:07:13.461Z,100079.53
2018-04-25T07:08:15.990Z,100075.57
2018-04-25T07:09:18.451Z,100079.88
2018-04-25T07:10:20.956Z,100074.94
2018-04-25T07:11:23.452Z,100085.39
2018-04-25T07:12:25.942Z,100091.48
2018-04-25T07:13:28.486Z,100087.92
2018-04-25T07:14:30.972Z,100092.05
2018-04-25T07:15:33.512Z,100091.83
2018-04-25T07:16:36.001Z,100098.72
2018-04-25T07:17:38.478Z,100099.13
2018-04-25T07:18:40.970Z,100092.41
2018-04-25T07:19:43.486Z,100104.98
2018-04-25T07:20:45.989Z,100102.80
2018-04-25T07:21:48.476Z,100101.42
2018-04-25T07:22:51.048Z,100105.70
2018-04-25T07:23:53.574Z,100104.58
2018-04-25T07:24:56.069Z,100105.70
2018-04-25T07:25:58.559Z,100111.22
2018-04-25T07:27:01.083Z,100105.70
2018-04-25T07:28:03.567Z,100104.89
2018-04-25T07:29:06.105Z,100113.97
2018-04-25T07:30:08.621Z,100112.77
2018-04-25T07:31:11.117Z,100108.63
2018-04-25T07:32:13.595Z,100108.63
2018-04-25T07:33:16.104Z,100110.58
2018-04-25T07:34:18.583Z,100115.12
2018-04-25T07:35:21.092Z,100111.96
2018-04-25T07:36:23.721Z,100103.30
2018-04-25T07:37:26.278Z,100113.34
2018-04-25T07:38:28.808Z,100114.48
2018-04-25T07:39:31.300Z,100115.87
2018-04-25T07:40:33.794Z,100121.78
2018-04-25T07:41:36.344Z,100115.47
2018-04-25T07:42:38.848Z,100111.73
2018-04-25T07:43:41.345Z,100108.58
2018-04-25T07:44:43.840Z,100106.39
2018-04-25T07:45:46.336Z,100109.55
2018-04-25T07:46:48.845Z,100110.53
2018-04-25T07:47:51.348Z,100109.15
2018-04-25T07:48:53.855Z,100109.95
2018-04-25T07:49:56.354Z,100107.20
2018-04-25T07:50:58.844Z,100110.53
2018-04-25T07:52:01.339Z,100111.73
2018-04-25T07:53:03.966Z,100109.78
2018-04-25T07:54:06.524Z,100108.40
2018-04-25T07:55:09.084Z,100105.07
2018-04-25T07:56:11.588Z,100104.49
2018-04-25T07:57:14.086Z,100106.67
2018-04-25T07:58:16.583Z,100107.08
2018-04-25T07:59:19.119Z,100107.73
2018-04-25T08:00:21.608Z,100101.25
2018-04-25T08:01:24.099Z,100101.87
2018-04-25T08:02:26.592Z,100100.73
2018-04-25T08:03:29.096Z,100097.57
2018-04-25T08:04:31.618Z,100103.71
2018-04-25T08:05:34.135Z,100098.59
2018-04-25T08:06:36.611Z,100093.89
2018-04-25T08:07:39.187Z,100093.48
2018-04-25T08:08:41.663Z,100099.23
2018-04-25T08:09:44.141Z,100099.62
2018-04-25T08:10:46.667Z,100109.68
2018-04-25T08:11:49.173Z,100101.81
2018-04-25T08:13:03.449Z,100106.34
2018-04-25T08:15:55.779Z,100115.02
2018-04-25T08:17:10.031Z,100117.20
2018-04-25T08:18:24.375Z,100116.40
2018-04-25T08:19:38.774Z,100116.80
2018-04-25T08:22:37.009Z,100119.56
2018-04-25T08:23:39.496Z,100121.91
2018-04-25T08:24:42.012Z,100129.61
2018-04-25T08:25:44.497Z,100127.66
2018-04-25T08:26:47.014Z,100132.59
2018-04-25T08:27:49.519Z,100130.23
2018-04-25T08:28:52.020Z,100135.00
2018-04-25T08:29:54.491Z,100133.05
2018-04-25T08:30:56.985Z,100134.25
2018-04-25T08:31:59.480Z,100137.98
2018-04-25T08:33:01.994Z,100139.19
2018-04-25T08:34:04.484Z,100141.38
2018-04-25T08:35:06.988Z,100142.17
2018-04-25T08:36:09.480Z,100141.20
2018-04-25T08:37:11.952Z,100146.55
2018-04-25T08:38:14.443Z,100143.38
2018-04-25T08:39:16.960Z,100147.34
2018-04-25T08:40:19.485Z,100138.67
2018-04-25T08:41:21.988Z,100143.64
2018-04-25T08:42:24.481Z,100146.22
2018-04-25T08:43:27.013Z,100142.49
2018-04-25T08:44:29.505Z,100147.03
2018-04-25T08:45:31.988Z,100146.63
2018-04-25T08:46:34.473Z,100149.78
2018-04-25T08:47:36.951Z,100150.77
2018-04-25T08:48:39.464Z,100149.38
2018-04-25T08:49:41.941Z,100157.25
2018-04-25T08:50:44.422Z,100144.27
2018-04-25T08:51:46.910Z,100153.92
2018-04-25T08:52:49.430Z,100150.36
2018-04-25T08:53:51.960Z,100152.72
2018-04-25T08:54:54.467Z,100159.75
2018-04-25T08:55:56.968Z,100155.22
2018-04-25T08:56:59.472Z,100155.39
2018-04-25T08:58:01.986Z,100153.61
2018-04-25T08:59:04.499Z,100154.19
2018-04-25T09:00:07.003Z,100160.09
2018-04-25T09:01:09.486Z,100155.33
2018-04-25T09:02:11.991Z,100163.03
2018-04-25T09:03:14.501Z,100163.78
2018-04-25T09:04:17.020Z,100165.55
2018-04-25T09:05:19.509Z,100166.13
2018-04-25T09:06:22.005Z,100170.27
2018-04-25T09:07:24.494Z,100173.02
2018-04-25T09:08:26.991Z,100172.80
2018-04-25T09:09:29.475Z,100171.99
2018-04-25T09:10:31.950Z,100186.17
2018-04-25T09:11:34.451Z,100198.19
2018-04-25T09:12:36.940Z,100185.61
2018-04-25T09:13:39.435Z,100184.23
2018-04-25T09:14:42.047Z,100186.00
2018-04-25T09:15:44.565Z,100184.45
2018-04-25T09:16:47.053Z,100182.67
2018-04-25T09:17:49.542Z,100184.86
2018-04-25T09:18:52.071Z,100183.70
2018-04-25T09:19:54.543Z,100190.83
2018-04-25T09:20:57.018Z,100183.94
2018-04-25T09:21:59.494Z,100179.22
2018-04-25T09:23:02.001Z,100184.73
2018-04-25T09:24:04.488Z,100180.03
2018-04-25T09:25:06.995Z,100178.51
2018-04-25T09:26:09.493Z,100179.14
2018-04-25T09:27:12.003Z,100194.70
2018-04-25T09:28:14.506Z,100179.94
2018-04-25T09:29:16.990Z,100185.86
2018-04-25T09:30:19.475Z,100182.13
2018-04-25T09:31:21.961Z,100186.26
2018-04-25T09:32:24.449Z,100184.70
2018-04-25T09:33:27.011Z,100182.75
2018-04-25T09:34:29.572Z,100182.75
2018-04-25T09:35:32.090Z,100191.42
2018-04-25T09:36:34.574Z,100182.58
2018-04-25T09:37:37.093Z,100181.61
2018-04-25T09:38:39.599Z,100194.59
2018-04-25T09:39:42.093Z,100190.05
2018-04-25T09:40:44.609Z,100186.72
2018-04-25T09:41:47.116Z,100180.80
2018-04-25T09:42:49.626Z,100189.07
2018-04-25T09:43:52.142Z,100186.89
2018-04-25T09:44:54.623Z,100184.53
2018-04-25T09:45:57.165Z,100192.80
2018-04-25T09:46:59.633Z,100198.72
2018-04-25T09:48:02.123Z,100201.88
2018-04-25T09:49:04.609Z,100198.72
2018-04-25T09:50:07.299Z,100213.66
2018-04-25T09:51:09.789Z,100215.44
2018-04-25T09:52:12.277Z,100211.47
2018-04-25T09:53:14.754Z,100220.72
2018-04-25T09:54:17.264Z,100225.84
2018-04-25T09:55:19.793Z,100236.06
2018-04-25T09:56:22.299Z,100225.61
2018-04-25T09:57:24.868Z,100237.53
2018-04-25T09:58:27.301Z,100226.50
2018-04-25T09:59:29.806Z,100227.47
2018-04-25T10:00:37.974Z,100232.58
2018-04-25T10:01:40.468Z,100226.44
2018-04-25T10:02:42.978Z,100227.07
2018-04-25T10:03:45.519Z,100225.86
2018-04-25T10:04:47.994Z,100224.72
2018-04-25T10:05:50.482Z,100236.95
2018-04-25T10:06:52.984Z,100230.89
2018-04-25T10:07:55.476Z,100225.78
2018-04-25T10:08:57.995Z,100228.77
2018-04-25T10:10:00.497Z,100228.19
2018-04-25T10:11:02.986Z,100226.06
2018-04-25T10:12:05.490Z,100228.66
2018-04-25T10:13:07.991Z,100229.63
2018-04-25T10:14:10.467Z,100232.56
2018-04-25T10:15:13.043Z,100232.39
2018-04-25T10:16:15.500Z,100228.25
2018-04-25T10:17:18.052Z,100232.78
2018-04-25T10:18:20.525Z,100220.78
2018-04-25T10:19:23.016Z,100215.09
2018-04-25T10:20:25.510Z,100218.66
2018-04-25T10:21:28.015Z,100224.80
2018-04-25T10:22:30.504Z,100221.47
2018-04-25T10:23:32.992Z,100226.58
2018-04-25T10:24:35.481Z,100230.95
2018-04-25T10:25:37.970Z,100227.44
2018-04-25T10:26:40.458Z,100227.67
2018-04-25T10:27:42.953Z,100228.07
2018-04-25T10:28:45.427Z,100238.93
2018-04-25T10:29:47.927Z,100231.23
2018-04-25T10:30:50.428Z,100227.90
2018-04-25T10:31:52.926Z,100228.30
2018-04-25T10:32:55.435Z,100235.77
2018-04-25T10:33:57.939Z,100238.75
2018-04-25T10:35:00.432Z,100233.41
2018-04-25T10:36:02.916Z,100231.46
2018-04-25T10:37:05.416Z,100234.22
2018-04-25T10:38:07.886Z,100237.95
2018-04-25T10:39:10.356Z,100238.53
2018-04-25T10:40:12.855Z,100242.27
2018-04-25T10:41:15.681Z,100239.91
2018-04-25T10:42:18.203Z,100241.06
2018-04-25T10:43:20.730Z,100246.34
2018-04-25T10:44:23.235Z,100241.00
2018-04-25T10:45:25.723Z,100242.55
2018-04-25T10:46:28.264Z,100248.81
2018-04-25T10:47:30.717Z,100251.34
2018-04-25T10:48:33.199Z,100250.94
2018-04-25T10:49:35.688Z,100254.44
2018-04-25T10:50:38.189Z,100255.59
2018-04-25T10:51:40.692Z,100249.45
2018-04-25T10:52:43.170Z,100255.53
2018-04-25T10:53:45.671Z,100257.89
2018-04-25T10:54:48.177Z,100257.09
2018-04-25T10:55:50.677Z,100260.96
2018-04-25T10:56:53.147Z,100264.30
2018-04-25T10:57:55.637Z,100265.44
2018-04-25T10:58:58.952Z,100265.44
2018-04-25T11:00:01.442Z,100267.97
2018-04-25T11:01:03.938Z,100273.88
2018-04-25T11:02:06.434Z,100271.70
2018-04-25T11:03:08.924Z,100270.49
2018-04-25T11:04:11.395Z,100271.47
2018-04-25T11:05:13.897Z,100268.72
2018-04-25T11:06:16.406Z,100267.34
2018-04-25T11:07:19.190Z,100263.38
2018-04-25T11:08:21.746Z,100267.50
2018-04-25T11:09:24.173Z,100262.56
2018-04-25T11:10:26.695Z,100264.92
2018-04-25T11:11:29.747Z,100268.08
2018-04-25T11:12:32.233Z,100271.81
2018-04-25T11:13:34.737Z,100267.45
2018-04-25T11:14:37.228Z,100266.47
2018-04-25T11:15:39.714Z,100264.69
2018-04-25T11:16:42.187Z,100264.69
2018-04-25T11:17:44.676Z,100263.72
2018-04-25T11:18:47.157Z,100261.53
2018-04-25T11:19:49.684Z,100256.02
2018-04-25T11:20:52.204Z,100268.66
2018-04-25T11:21:54.693Z,100262.16
2018-04-25T11:22:57.199Z,100253.89
2018-04-25T11:23:59.715Z,100255.09
2018-04-25T11:25:02.203Z,100251.19
2018-04-25T11:26:04.712Z,100256.14
2018-04-25T11:27:07.212Z,100253.38
2018-04-25T11:28:09.713Z,100242.41
2018-04-25T11:29:12.235Z,100252.86
2018-04-25T11:30:14.742Z,100242.81
2018-04-25T11:31:17.231Z,100241.83
2018-04-25T11:32:19.706Z,100245.97
2018-04-25T11:33:22.195Z,100242.81
2018-04-25T11:34:24.714Z,100244.41
2018-04-25T11:35:27.192Z,100243.21
2018-04-25T11:36:29.680Z,100258.61
2018-04-25T11:37:32.185Z,100259.01
2018-04-25T11:38:34.688Z,100254.88
2018-04-25T11:39:37.174Z,100249.79
2018-04-25T11:40:39.675Z,100244.27
2018-04-25T11:41:42.159Z,100247.84
2018-04-25T11:42:44.649Z,100262.20
2018-04-25T11:43:47.154Z,100252.55
2018-04-25T11:44:49.660Z,100253.09
2018-04-25T11:45:52.154Z,100252.69
2018-04-25T11:46:54.670Z,100255.45
2018-04-25T11:47:57.157Z,100249.30
2018-04-25T11:48:59.662Z,100255.79
2018-04-25T11:50:02.151Z,100256.77
2018-04-25T11:51:04.728Z,100253.61
2018-04-25T11:52:07.237Z,100252.41
2018-04-25T11:53:09.760Z,100248.84
2018-04-25T11:54:12.319Z,100254.92
2018-04-25T11:55:15.120Z,100254.70
2018-04-25T11:56:18.765Z,100256.25
2018-04-25T11:57:22.279Z,100259.01
2018-04-25T11:58:25.768Z,100260.16
2018-04-25T11:59:28.827Z,100272.96
2018-04-25T12:00:31.309Z,100260.73
2018-04-25T12:01:33.811Z,100262.11
2018-04-25T12:02:36.319Z,100268.77
2018-04-25T12:03:38.821Z,100262.85
2018-04-25T12:04:41.326Z,100260.90
2018-04-25T12:05:43.828Z,100261.47
2018-04-25T12:06:46.316Z,100264.06
2018-04-25T12:07:48.924Z,100272.73
2018-04-25T12:08:51.414Z,100268.83
2018-04-25T12:09:53.892Z,100272.56
2018-04-25T12:10:56.382Z,100264.69
2018-04-25T12:11:58.860Z,100261.77
2018-04-25T12:13:01.462Z,100259.41
2018-04-25T12:14:03.894Z,100262.97